Time;durP1;ratioP1;P1;durP2;ratioP2;P2;SDS_P1;SDS_P2;PMS_P1;PMS_P2;Temp;Humidity;BMP_temperature;BMP_pressure;BME280_temperature;BME280_humidity;BME280_pressure;Samples;Min_cycle;Max_cycle;Signal;HPM_P1;HPM_P2
2022/11/19 00:00:53;;;;;;;27.05;21.25;;;10.40;99.90;;;;;;5055241;28;20025;-63
2022/11/19 00:03:20;;;;;;;22.77;17.83;;;10.40;99.90;;;;;;5055081;28;20025;-68
2022/11/19 00:05:48;;;;;;;19.95;16.42;;;10.40;99.90;;;;;;5055352;28;20459;-67
2022/11/19 00:08:16;;;;;;;20.60;15.45;;;10.50;99.90;;;;;;5055481;28;20375;-69
2022/11/19 00:10:43;;;;;;;22.75;14.68;;;10.50;99.90;;;;;;5011052;28;1290179;-66
2022/11/19 00:13:09;;;;;;;18.40;14.43;;;10.40;99.90;;;;;;5056506;28;20080;-63
2022/11/19 00:15:36;;;;;;;19.58;14.82;;;10.40;99.90;;;;;;5056393;28;20025;-72
2022/11/19 00:18:03;;;;;;;17.02;13.02;;;10.40;99.90;;;;;;5056266;28;20025;-67
2022/11/19 00:20:29;;;;;;;12.98;11.18;;;10.30;99.90;;;;;;5056387;28;20044;-71
2022/11/19 00:22:59;;;;;;;20.00;15.43;;;10.40;99.90;;;;;;5056260;28;20463;-70
2022/11/19 00:25:27;;;;;;;13.75;10.65;;;10.50;99.90;;;;;;5056567;28;20025;-69
2022/11/19 00:27:52;;;;;;;15.85;12.38;;;10.50;99.90;;;;;;5055971;28;20464;-70
2022/11/19 00:30:19;;;;;;;24.75;18.05;;;10.50;99.90;;;;;;5055859;28;20048;-71
2022/11/19 00:32:45;;;;;;;29.23;20.98;;;10.50;99.90;;;;;;5055985;28;20486;-72
2022/11/19 00:35:11;;;;;;;24.98;19.02;;;10.30;99.90;;;;;;5056125;28;20025;-75
2022/11/19 00:37:37;;;;;;;21.42;16.23;;;10.20;99.90;;;;;;5054737;28;20055;-66
2022/11/19 00:40:04;;;;;;;16.65;13.65;;;10.10;99.90;;;;;;5056005;28;20545;-71
2022/11/19 00:42:30;;;;;;;25.95;18.95;;;10.20;99.90;;;;;;5056077;28;20475;-64
2022/11/19 00:44:55;;;;;;;24.83;17.83;;;10.30;99.90;;;;;;5055613;28;20075;-72
2022/11/19 00:47:21;;;;;;;23.80;17.90;;;10.20;99.90;;;;;;5055976;28;20524;-69
2022/11/19 00:49:47;;;;;;;20.27;15.00;;;10.20;99.90;;;;;;5055683;28;20096;-72
2022/11/19 00:52:12;;;;;;;19.58;15.32;;;10.20;99.90;;;;;;5055567;28;20060;-68
2022/11/19 00:54:38;;;;;;;20.90;15.70;;;10.20;99.90;;;;;;5055957;28;20406;-72
2022/11/19 00:57:03;;;;;;;15.88;12.98;;;10.10;99.90;;;;;;5055747;28;20116;-69
2022/11/19 00:59:29;;;;;;;20.30;16.05;;;10.10;99.90;;;;;;5055336;28;20558;-64
2022/11/19 01:01:55;;;;;;;17.10;14.07;;;10.00;99.90;;;;;;5055544;28;20460;-73
2022/11/19 01:04:21;;;;;;;28.00;21.23;;;10.00;99.90;;;;;;5055740;28;20029;-72
2022/11/19 01:06:46;;;;;;;26.35;20.40;;;9.90;99.90;;;;;;5055436;28;20490;-67
2022/11/19 01:09:12;;;;;;;26.92;19.73;;;9.80;99.90;;;;;;5055128;28;20040;-70
2022/11/19 01:11:38;;;;;;;20.40;17.45;;;9.60;99.90;;;;;;5055557;28;20028;-72
2022/11/19 01:14:05;;;;;;;20.58;16.38;;;9.60;99.90;;;;;;5055278;28;20029;-72
2022/11/19 01:16:34;;;;;;;16.17;13.90;;;9.50;99.90;;;;;;5055122;28;20042;-71
2022/11/19 01:19:00;;;;;;;21.05;15.90;;;9.50;99.90;;;;;;5055619;28;20036;-62
2022/11/19 01:21:29;;;;;;;14.85;12.75;;;9.60;99.90;;;;;;5055073;28;20029;-73
2022/11/19 01:23:56;;;;;;;25.33;19.42;;;9.60;99.90;;;;;;5055114;28;20025;-73
2022/11/19 01:26:23;;;;;;;22.60;16.65;;;9.60;99.90;;;;;;5053983;28;20483;-69
2022/11/19 01:28:50;;;;;;;18.58;14.95;;;9.50;99.90;;;;;;5054996;28;20064;-64
2022/11/19 01:31:18;;;;;;;14.00;12.00;;;9.40;99.90;;;;;;5055024;28;20074;-67
2022/11/19 01:33:44;;;;;;;16.60;13.40;;;9.40;99.90;;;;;;5055120;28;20017;-70
2022/11/19 01:36:13;;;;;;;12.95;11.43;;;9.50;99.90;;;;;;5055099;28;20475;-65
2022/11/19 01:38:39;;;;;;;13.82;11.27;;;9.50;99.90;;;;;;5054698;28;20056;-72
2022/11/19 01:41:05;;;;;;;13.45;10.73;;;9.60;99.90;;;;;;5052942;28;20415;-68
2022/11/19 01:43:52;;;;;;;15.57;12.32;;;9.70;99.90;;;;;;5054729;28;20017;-70
2022/11/19 01:46:23;;;;;;;14.07;10.25;;;9.70;99.90;;;;;;5054729;28;20418;-67
2022/11/19 01:49:09;;;;;;;11.07;9.10;;;9.60;99.90;;;;;;5054435;28;20040;-72
2022/11/19 01:51:57;;;;;;;10.85;8.93;;;9.60;99.90;;;;;;5054568;28;20025;-70
2022/11/19 01:54:36;;;;;;;10.75;8.02;;;9.60;99.90;;;;;;5054507;28;20107;-70
2022/11/19 01:57:10;;;;;;;8.93;7.60;;;9.70;99.90;;;;;;5054535;28;20027;-72
2022/11/19 01:59:36;;;;;;;8.85;7.03;;;9.70;99.90;;;;;;5054431;28;20025;-72
2022/11/19 02:02:02;;;;;;;8.57;7.18;;;9.80;99.90;;;;;;5053418;28;20465;-66
2022/11/19 02:04:29;;;;;;;9.60;7.88;;;9.80;99.90;;;;;;5054376;28;20108;-72
2022/11/19 02:06:55;;;;;;;12.20;10.10;;;9.80;99.90;;;;;;5054296;28;20426;-69
2022/11/19 02:09:22;;;;;;;9.50;8.00;;;9.70;99.90;;;;;;5054165;28;20059;-68
2022/11/19 02:12:12;;;;;;;16.77;11.88;;;9.60;99.90;;;;;;5054289;28;20029;-67
2022/11/19 02:15:16;;;;;;;25.55;14.57;;;9.50;99.90;;;;;;5054637;28;20475;-68
2022/11/19 02:18:08;;;;;;;20.25;14.10;;;9.40;99.90;;;;;;5054072;28;20436;-69
2022/11/19 02:21:22;;;;;;;24.05;16.30;;;9.30;99.90;;;;;;5054186;28;20021;-65
2022/11/19 02:23:50;;;;;;;25.85;16.30;;;9.20;99.90;;;;;;5051962;28;20067;-67
2022/11/19 02:26:43;;;;;;;26.88;16.65;;;9.20;99.90;;;;;;5052259;28;20095;-68
2022/11/19 02:29:17;;;;;;;24.98;15.30;;;9.20;99.90;;;;;;5053057;28;20124;-72
2022/11/19 02:31:50;;;;;;;17.25;12.55;;;9.20;99.90;;;;;;5054199;28;20025;-74
2022/11/19 02:34:22;;;;;;;15.05;11.02;;;9.20;99.90;;;;;;5053999;28;20052;-65
2022/11/19 02:37:12;;;;;;;13.07;10.00;;;9.20;99.90;;;;;;5053887;28;20055;-68
2022/11/19 02:39:43;;;;;;;11.32;8.98;;;9.30;99.90;;;;;;5053654;28;20083;-68
2022/11/19 02:42:21;;;;;;;9.60;7.85;;;9.30;99.90;;;;;;5053755;28;20025;-69
2022/11/19 02:44:58;;;;;;;15.57;12.13;;;9.30;99.90;;;;;;5054214;28;20036;-63
2022/11/19 02:47:52;;;;;;;20.58;14.68;;;9.30;99.90;;;;;;5053974;28;20060;-68
2022/11/19 02:50:33;;;;;;;16.77;12.55;;;9.20;99.90;;;;;;5053165;28;20104;-69
2022/11/19 02:53:00;;;;;;;16.15;11.75;;;9.20;99.90;;;;;;5053641;28;20017;-69
2022/11/19 02:55:26;;;;;;;17.20;11.60;;;9.30;99.90;;;;;;5053533;28;20052;-67
2022/11/19 03:04:28;;;;;;;15.98;11.93;;;9.30;99.90;;;;;;5053720;28;20471;-62
2022/11/19 03:06:34;;;;;;;20.08;13.52;;;8.90;99.90;;;;;;5053904;28;20032;-68
2022/11/19 03:09:00;;;;;;;14.25;11.50;;;8.80;99.90;;;;;;5053441;28;20025;-68
2022/11/19 03:11:28;;;;;;;12.30;10.35;;;8.80;99.90;;;;;;5053372;28;20458;-71
2022/11/19 03:16:52;;;;;;;12.05;8.88;;;8.80;99.90;;;;;;5053647;28;20495;-71
2022/11/19 03:19:43;;;;;;;11.40;8.52;;;8.90;99.90;;;;;;5053569;28;20024;-71
2022/11/19 03:22:16;;;;;;;9.65;7.85;;;9.00;99.90;;;;;;5053186;28;20029;-71
2022/11/19 03:24:46;;;;;;;12.30;8.80;;;9.00;99.90;;;;;;5053134;28;20027;-73
2022/11/19 03:27:19;;;;;;;9.45;8.38;;;9.00;99.90;;;;;;5053347;28;20027;-73
2022/11/19 03:29:49;;;;;;;11.10;8.05;;;9.00;99.90;;;;;;5053285;28;20033;-69
2022/11/19 03:32:43;;;;;;;11.43;8.38;;;9.00;99.90;;;;;;5053392;28;20422;-68
2022/11/19 03:35:26;;;;;;;12.13;8.05;;;9.00;99.90;;;;;;5053450;28;20074;-70
2022/11/19 03:37:54;;;;;;;10.27;7.05;;;9.10;99.90;;;;;;5053179;28;20035;-70
2022/11/19 03:40:22;;;;;;;13.05;9.30;;;9.10;99.90;;;;;;5053187;28;20025;-73
2022/11/19 03:42:51;;;;;;;12.60;7.75;;;9.00;99.90;;;;;;5053092;28;20495;-68
2022/11/19 03:45:31;;;;;;;11.35;8.15;;;9.00;99.90;;;;;;5053306;28;20025;-73
2022/11/19 03:47:59;;;;;;;8.68;7.03;;;9.00;99.90;;;;;;5053184;28;20017;-73
2022/11/19 03:50:48;;;;;;;7.57;6.25;;;9.00;99.90;;;;;;5053514;28;20047;-73
2022/11/19 03:53:15;;;;;;;9.70;7.18;;;9.00;99.90;;;;;;5052237;28;20064;-75
2022/11/19 03:55:50;;;;;;;11.98;8.40;;;9.00;99.90;;;;;;5051926;28;20029;-67
2022/11/19 03:58:16;;;;;;;12.20;8.38;;;9.00;99.90;;;;;;5053260;28;20447;-62
2022/11/19 04:00:41;;;;;;;17.52;10.65;;;8.90;99.90;;;;;;5051820;28;20098;-65
2022/11/19 04:03:07;;;;;;;16.35;11.23;;;8.90;99.90;;;;;;5054138;28;20032;-65
2022/11/19 04:05:32;;;;;;;10.38;7.53;;;8.90;99.90;;;;;;5056847;28;20030;-70
2022/11/19 04:07:58;;;;;;;10.30;7.85;;;8.80;99.90;;;;;;5056441;28;20024;-68
2022/11/19 04:10:24;;;;;;;12.98;9.25;;;8.90;99.90;;;;;;5056547;28;20052;-74
2022/11/19 04:12:49;;;;;;;16.08;10.95;;;8.90;99.90;;;;;;5055253;28;20028;-71
2022/11/19 04:15:15;;;;;;;12.52;9.65;;;8.90;99.90;;;;;;5056633;28;20025;-67
2022/11/19 04:17:41;;;;;;;11.63;8.23;;;8.80;99.90;;;;;;5056547;28;20066;-68
2022/11/19 04:20:08;;;;;;;8.77;7.38;;;8.70;99.90;;;;;;5056589;28;20064;-67
2022/11/19 04:22:34;;;;;;;9.43;7.40;;;8.80;99.90;;;;;;5056011;28;20028;-73
2022/11/19 04:24:59;;;;;;;19.42;12.63;;;8.80;99.90;;;;;;5056372;28;20095;-66
2022/11/19 04:27:25;;;;;;;12.85;9.77;;;8.90;99.90;;;;;;5056554;28;20036;-71
2022/11/19 04:29:51;;;;;;;11.55;8.50;;;8.90;99.90;;;;;;5056220;28;20368;-72
2022/11/19 04:32:16;;;;;;;11.77;8.65;;;8.90;99.90;;;;;;5056121;28;20027;-68
2022/11/19 04:34:42;;;;;;;19.67;13.02;;;8.90;99.90;;;;;;5056337;28;20105;-68
2022/11/19 04:37:08;;;;;;;14.07;10.20;;;8.90;99.90;;;;;;5055985;28;20017;-69
2022/11/19 04:39:33;;;;;;;12.85;9.00;;;8.90;99.90;;;;;;5056037;28;20029;-65
2022/11/19 04:41:59;;;;;;;11.73;8.90;;;8.90;99.90;;;;;;5056124;28;20483;-76
2022/11/19 04:44:24;;;;;;;10.90;8.63;;;8.90;99.90;;;;;;5056187;28;20025;-65
2022/11/19 04:46:50;;;;;;;12.45;9.05;;;8.90;99.90;;;;;;5055904;28;20029;-67
2022/11/19 04:49:16;;;;;;;13.07;8.65;;;9.00;99.90;;;;;;5055991;28;20033;-72
2022/11/19 04:51:42;;;;;;;12.73;8.35;;;9.00;99.90;;;;;;5055632;28;20017;-66
2022/11/19 04:54:07;;;;;;;11.60;8.57;;;9.00;99.90;;;;;;5055923;28;20029;-65
2022/11/19 04:56:34;;;;;;;11.32;8.05;;;9.00;99.90;;;;;;5055581;28;20028;-65
2022/11/19 04:59:00;;;;;;;13.90;10.63;;;9.00;99.90;;;;;;5055581;28;20075;-66
2022/11/19 05:01:25;;;;;;;14.77;10.07;;;8.90;99.90;;;;;;5055957;28;20017;-69
2022/11/19 05:03:51;;;;;;;17.35;12.52;;;9.00;99.90;;;;;;5055713;28;20048;-68
2022/11/19 05:06:17;;;;;;;15.93;12.15;;;9.00;99.90;;;;;;5055574;28;20397;-74
2022/11/19 05:08:43;;;;;;;15.43;12.35;;;9.00;99.90;;;;;;5055525;28;20025;-65
2022/11/19 05:11:09;;;;;;;21.02;14.75;;;9.10;99.90;;;;;;5055222;28;20135;-65
2022/11/19 05:13:34;;;;;;;25.90;18.52;;;9.00;99.90;;;;;;5055516;28;20108;-73
2022/11/19 05:16:00;;;;;;;23.02;17.70;;;9.00;99.90;;;;;;5054334;28;20402;-66
2022/11/19 05:18:25;;;;;;;23.23;17.58;;;8.90;99.90;;;;;;5055435;28;20527;-72
2022/11/19 05:20:51;;;;;;;22.83;16.83;;;8.80;99.90;;;;;;5054319;28;20541;-71
2022/11/19 05:23:17;;;;;;;20.95;14.85;;;8.70;99.90;;;;;;5055368;28;20025;-65
2022/11/19 05:25:42;;;;;;;16.92;12.77;;;8.70;99.90;;;;;;5055495;28;20048;-67
2022/11/19 05:28:08;;;;;;;15.10;11.90;;;8.70;99.90;;;;;;5055200;28;20032;-64
2022/11/19 05:30:34;;;;;;;16.75;13.15;;;8.80;99.90;;;;;;5055012;28;20369;-70
2022/11/19 05:33:00;;;;;;;15.23;12.98;;;8.80;99.90;;;;;;5055128;28;20025;-73
2022/11/19 05:35:26;;;;;;;17.17;13.57;;;8.80;99.90;;;;;;5054882;28;20021;-70
2022/11/19 05:37:51;;;;;;;18.80;15.00;;;8.80;99.90;;;;;;5055167;28;20028;-70
2022/11/19 05:40:17;;;;;;;18.95;14.18;;;8.80;99.90;;;;;;5054933;28;20017;-70
2022/11/19 05:42:43;;;;;;;14.07;12.02;;;8.80;99.90;;;;;;5054782;28;20052;-68
2022/11/19 05:45:09;;;;;;;20.13;14.25;;;8.80;99.90;;;;;;5053680;28;20025;-66
2022/11/19 05:47:35;;;;;;;14.05;12.52;;;8.80;99.90;;;;;;5055190;28;20032;-70
2022/11/19 05:50:01;;;;;;;15.27;12.35;;;8.80;99.90;;;;;;5054599;28;20025;-74
2022/11/19 05:52:27;;;;;;;17.38;13.63;;;8.80;99.90;;;;;;5054849;28;20064;-68
2022/11/19 05:54:53;;;;;;;15.57;13.00;;;8.80;99.90;;;;;;5054741;28;20056;-67
2022/11/19 05:57:19;;;;;;;15.65;12.63;;;8.90;99.90;;;;;;5054665;28;20067;-70
2022/11/19 05:59:44;;;;;;;19.13;14.25;;;9.00;99.90;;;;;;5054587;28;20025;-65
2022/11/19 06:02:10;;;;;;;20.48;13.98;;;9.00;99.90;;;;;;5054412;28;20017;-73
2022/11/19 06:04:36;;;;;;;15.43;11.65;;;9.00;99.90;;;;;;5054740;28;20025;-70
2022/11/19 06:07:02;;;;;;;14.18;11.57;;;9.00;99.90;;;;;;5054669;28;20438;-70
2022/11/19 06:09:28;;;;;;;14.15;12.05;;;9.00;99.90;;;;;;5054335;28;20104;-68
2022/11/19 06:11:54;;;;;;;13.75;11.50;;;9.00;99.90;;;;;;5054321;28;20049;-68
2022/11/19 06:14:24;;;;;;;13.65;11.82;;;9.10;99.90;;;;;;5054249;28;20056;-64
2022/11/19 06:16:51;;;;;;;15.63;12.10;;;9.10;99.90;;;;;;5054329;28;20093;-69
2022/11/19 06:19:20;;;;;;;14.48;12.02;;;9.20;99.90;;;;;;5054081;28;20516;-68
2022/11/19 06:21:46;;;;;;;18.05;13.07;;;9.20;99.90;;;;;;5054090;28;20053;-72
2022/11/19 06:24:12;;;;;;;21.65;15.75;;;9.20;99.90;;;;;;5054310;28;20021;-66
2022/11/19 06:26:38;;;;;;;15.93;12.63;;;9.20;99.90;;;;;;5053903;28;20433;-64
2022/11/19 06:29:05;;;;;;;25.65;15.60;;;9.20;99.90;;;;;;5054004;28;20099;-67
2022/11/19 06:31:32;;;;;;;23.48;18.27;;;9.20;99.90;;;;;;5054260;28;20387;-73
2022/11/19 06:33:57;;;;;;;25.33;18.67;;;9.20;99.90;;;;;;5053981;28;20025;-70
2022/11/19 06:36:23;;;;;;;32.40;22.08;;;9.20;99.90;;;;;;5053805;28;20356;-64
2022/11/19 06:38:49;;;;;;;26.25;20.30;;;9.20;99.90;;;;;;5054044;28;20048;-63
2022/11/19 06:41:15;;;;;;;30.95;21.75;;;9.20;99.90;;;;;;5053836;28;20049;-67
2022/11/19 06:43:42;;;;;;;34.33;22.20;;;9.20;99.90;;;;;;5053844;28;20021;-70
2022/11/19 06:46:08;;;;;;;26.20;18.38;;;9.30;99.90;;;;;;5053677;28;20091;-68
2022/11/19 06:48:34;;;;;;;23.92;17.65;;;9.30;99.90;;;;;;5053625;28;20032;-65
2022/11/19 06:51:00;;;;;;;25.00;18.60;;;9.20;99.90;;;;;;5053704;28;20029;-73
2022/11/19 06:53:26;;;;;;;20.05;15.45;;;9.20;99.90;;;;;;5053929;28;20036;-71
2022/11/19 06:56:10;;;;;;;23.83;17.15;;;9.30;99.90;;;;;;5053861;28;20025;-71
2022/11/19 06:58:35;;;;;;;21.55;16.63;;;9.30;99.90;;;;;;5053667;28;20025;-74
2022/11/19 07:01:01;;;;;;;21.27;17.63;;;9.30;99.90;;;;;;5053464;28;20028;-70
2022/11/19 07:03:27;;;;;;;21.08;16.33;;;9.30;99.90;;;;;;5053708;28;20544;-72
2022/11/19 07:06:02;;;;;;;20.40;15.90;;;9.30;99.90;;;;;;5053486;28;20112;-65
2022/11/19 07:08:30;;;;;;;20.90;16.27;;;9.40;99.90;;;;;;5053860;28;20058;-75
2022/11/19 07:10:55;;;;;;;18.17;14.63;;;9.40;99.90;;;;;;5053247;28;20052;-65
2022/11/19 07:13:21;;;;;;;20.67;15.93;;;9.40;99.90;;;;;;5053480;28;20021;-65
2022/11/19 07:15:47;;;;;;;20.63;15.40;;;9.40;99.90;;;;;;5053534;28;20029;-72
2022/11/19 07:18:13;;;;;;;19.40;15.32;;;9.40;99.90;;;;;;5053694;28;20025;-70
2022/11/19 07:20:38;;;;;;;18.08;15.38;;;9.40;99.90;;;;;;5052200;28;20028;-74
2022/11/19 07:23:09;;;;;;;21.02;16.58;;;9.50;99.90;;;;;;5053343;28;20067;-67
2022/11/19 07:25:34;;;;;;;18.63;14.48;;;9.50;99.90;;;;;;5053419;28;20021;-71
2022/11/19 07:28:00;;;;;;;20.85;16.00;;;9.50;99.90;;;;;;5053559;28;20112;-70
2022/11/19 07:30:25;;;;;;;18.77;15.75;;;9.50;99.90;;;;;;5053582;28;20437;-68
2022/11/19 07:32:52;;;;;;;19.55;17.00;;;9.60;99.90;;;;;;5053192;28;20549;-71
2022/11/19 07:35:18;;;;;;;24.73;19.98;;;9.60;99.90;;;;;;5053442;28;20371;-73
2022/11/19 07:37:43;;;;;;;35.05;27.45;;;9.70;99.90;;;;;;5053961;28;20104;-75
2022/11/19 07:40:10;;;;;;;43.33;33.25;;;9.70;99.90;;;;;;5057239;28;20078;-71
2022/11/19 07:42:52;;;;;;;48.38;35.30;;;9.70;99.90;;;;;;5056008;28;20021;-74
2022/11/19 07:45:19;;;;;;;45.17;34.17;;;9.70;99.90;;;;;;5057226;28;20490;-67
2022/11/19 07:47:45;;;;;;;44.83;33.92;;;9.70;99.90;;;;;;5056945;28;20467;-68
2022/11/19 07:50:11;;;;;;;74.47;50.83;;;9.70;99.90;;;;;;5057201;28;20037;-70
2022/11/19 07:52:37;;;;;;;62.67;45.47;;;9.60;99.90;;;;;;5057199;28;20046;-64
2022/11/19 07:55:03;;;;;;;67.65;48.80;;;9.60;99.90;;;;;;5055979;28;20082;-74
2022/11/19 07:57:29;;;;;;;73.70;52.88;;;9.60;99.90;;;;;;5056717;28;20021;-68
2022/11/19 07:59:54;;;;;;;91.50;62.40;;;9.60;99.90;;;;;;5057004;28;20021;-66
2022/11/19 08:02:20;;;;;;;95.43;63.95;;;9.60;99.90;;;;;;5056604;28;20467;-68
2022/11/19 08:04:46;;;;;;;107.85;70.00;;;9.50;99.90;;;;;;5056769;28;20035;-68
2022/11/19 08:07:11;;;;;;;75.10;52.05;;;9.60;99.90;;;;;;5056575;28;20148;-68
2022/11/19 08:09:37;;;;;;;61.22;44.83;;;9.50;99.90;;;;;;5056690;28;20025;-73
2022/11/19 08:12:03;;;;;;;66.35;44.97;;;9.50;99.90;;;;;;5056775;28;20028;-73
2022/11/19 08:14:28;;;;;;;60.33;42.90;;;9.60;99.90;;;;;;5056252;28;20071;-70
2022/11/19 08:19:38;;;;;;;;;;;9.40;99.90;;;;;;5057172;28;20056;-65
2022/11/19 08:22:04;;;;;;;145.75;92.20;;;9.40;99.90;;;;;;5056491;28;19948;-68
2022/11/19 08:24:29;;;;;;;107.82;73.93;;;9.40;99.90;;;;;;5056663;28;20021;-70
2022/11/19 08:26:55;;;;;;;181.63;113.82;;;9.40;99.90;;;;;;5056345;28;20017;-74
2022/11/19 08:29:22;;;;;;;144.43;94.90;;;9.40;99.90;;;;;;5056272;28;20029;-62
2022/11/19 08:31:49;;;;;;;133.82;91.60;;;9.40;99.90;;;;;;5056357;28;20029;-75
2022/11/19 08:34:16;;;;;;;109.90;77.05;;;9.40;99.90;;;;;;5056269;28;20052;-65
2022/11/19 08:36:42;;;;;;;84.07;57.10;;;9.60;99.90;;;;;;5055025;28;20071;-67
2022/11/19 08:39:08;;;;;;;65.03;46.55;;;9.70;99.90;;;;;;5056263;28;20029;-65
2022/11/19 08:44:17;;;;;;;;;;;9.80;99.90;;;;;;5056908;28;20444;-68
2022/11/19 08:46:43;;;;;;;59.28;42.70;;;9.80;99.90;;;;;;5054939;28;19963;-71
2022/11/19 08:49:10;;;;;;;49.33;38.90;;;9.90;99.90;;;;;;5055761;28;20045;-66
2022/11/19 08:51:36;;;;;;;53.85;41.22;;;9.90;99.90;;;;;;5056358;28;20021;-66
2022/11/19 08:54:02;;;;;;;41.17;34.78;;;10.00;99.90;;;;;;5055953;28;20025;-70
2022/11/19 08:56:28;;;;;;;46.97;35.33;;;10.10;99.90;;;;;;5055745;28;20472;-67
2022/11/19 08:58:53;;;;;;;45.10;32.83;;;10.20;99.90;;;;;;5055524;28;20068;-71
2022/11/19 09:01:20;;;;;;;42.08;30.88;;;10.30;99.90;;;;;;5055715;28;20021;-71
2022/11/19 09:03:46;;;;;;;44.28;33.08;;;10.30;99.90;;;;;;5055623;28;20376;-75
2022/11/19 09:06:12;;;;;;;44.13;34.70;;;10.30;99.90;;;;;;5055780;28;20047;-70
2022/11/19 09:08:38;;;;;;;44.97;32.63;;;10.20;99.90;;;;;;5055752;28;20079;-62
2022/11/19 09:11:13;;;;;;;33.33;26.92;;;10.20;99.90;;;;;;5055508;28;20052;-67
2022/11/19 09:13:39;;;;;;;30.17;23.75;;;10.30;99.90;;;;;;5055585;28;20017;-68
2022/11/19 09:16:05;;;;;;;26.02;21.25;;;10.40;99.90;;;;;;5055642;28;20021;-71
2022/11/19 09:18:32;;;;;;;24.52;20.95;;;10.50;99.90;;;;;;5055564;28;20036;-68
2022/11/19 09:20:58;;;;;;;28.27;22.63;;;10.60;99.90;;;;;;5055683;28;20029;-64
2022/11/19 09:23:25;;;;;;;27.17;22.13;;;10.60;99.90;;;;;;5055503;28;20448;-71
2022/11/19 09:25:58;;;;;;;26.80;20.58;;;10.60;99.90;;;;;;5055190;28;20029;-65
2022/11/19 09:28:25;;;;;;;;;;;10.70;99.90;;;;;;5056023;28;20048;-68
2022/11/19 09:31:01;;;;;;;20.67;17.83;;;10.80;99.90;;;;;;5055611;28;20378;-65
2022/11/19 09:33:29;;;;;;;22.75;18.67;;;10.80;99.90;;;;;;5055308;28;20075;-67
2022/11/19 09:35:54;;;;;;;22.58;19.83;;;10.80;99.90;;;;;;5054191;28;20028;-67
2022/11/19 09:38:20;;;;;;;26.67;20.83;;;10.80;99.90;;;;;;5055155;28;20107;-73
2022/11/19 09:40:50;;;;;;;31.38;27.40;;;10.90;99.90;;;;;;5055405;28;20056;-64
2022/11/19 09:43:24;;;;;;;30.50;24.95;;;10.80;99.90;;;;;;5055155;28;20052;-72
2022/11/19 09:46:21;;;;;;;58.28;45.10;;;10.80;99.90;;;;;;5054988;28;20534;-70
2022/11/19 09:48:49;;;;;;;51.03;38.85;;;10.90;99.90;;;;;;5055360;28;20021;-71
2022/11/19 09:51:20;;;;;;;43.53;37.95;;;10.80;99.90;;;;;;5054707;28;20075;-67
2022/11/19 09:54:09;;;;;;;49.08;40.58;;;10.70;99.90;;;;;;5055072;28;20020;-73
2022/11/19 09:56:41;;;;;;;50.13;42.17;;;10.70;99.90;;;;;;5054802;28;20017;-71
2022/11/19 09:59:28;;;;;;;51.65;41.80;;;10.70;99.90;;;;;;5054800;28;20464;-66
2022/11/19 10:01:54;;;;;;;50.15;40.33;;;10.80;99.90;;;;;;5054305;28;20028;-76
2022/11/19 10:04:26;;;;;;;57.42;46.70;;;10.80;99.90;;;;;;5054899;28;20021;-68
2022/11/19 10:07:11;;;;;;;52.33;40.28;;;10.80;99.90;;;;;;5054403;28;20115;-68
2022/11/19 10:09:40;;;;;;;49.15;39.78;;;10.90;99.90;;;;;;5054629;28;20065;-67
2022/11/19 10:12:42;;;;;;;55.45;43.88;;;10.90;99.90;;;;;;5054484;28;20383;-68
2022/11/19 10:15:35;;;;;;;54.95;45.10;;;11.00;99.90;;;;;;5054786;28;20025;-70
2022/11/19 10:18:12;;;;;;;62.22;51.17;;;10.90;99.90;;;;;;5054746;28;20021;-76
2022/11/19 10:20:59;;;;;;;62.50;49.50;;;11.00;99.90;;;;;;5054795;28;20056;-68
2022/11/19 10:23:45;;;;;;;63.17;49.08;;;11.00;99.90;;;;;;5054371;28;20028;-71
2022/11/19 10:26:14;;;;;;;62.67;46.90;;;10.90;99.90;;;;;;5054122;28;20028;-68
2022/11/19 10:28:51;;;;;;;49.38;41.28;;;10.80;99.90;;;;;;5054209;28;20021;-63
2022/11/19 10:31:31;;;;;;;48.25;40.15;;;10.90;99.90;;;;;;5054007;28;20104;-73
2022/11/19 10:34:22;;;;;;;36.70;31.42;;;11.00;99.90;;;;;;5054349;28;20017;-71
2022/11/19 10:36:58;;;;;;;41.42;34.75;;;11.00;99.90;;;;;;5054062;28;20033;-66
2022/11/19 10:39:45;;;;;;;49.47;39.80;;;11.00;99.90;;;;;;5054181;28;20024;-67
2022/11/19 10:42:17;;;;;;;37.53;32.42;;;10.80;99.90;;;;;;5053996;28;20017;-66
2022/11/19 10:44:55;;;;;;;37.60;32.80;;;10.90;99.90;;;;;;5054015;28;20032;-69
2022/11/19 10:47:43;;;;;;;41.08;35.88;;;10.90;99.90;;;;;;5054188;28;20021;-68
2022/11/19 10:50:17;;;;;;;45.30;36.60;;;10.90;99.90;;;;;;5053640;28;20029;-68
2022/11/19 10:52:47;;;;;;;33.33;29.75;;;10.90;99.90;;;;;;5053979;28;20021;-75
2022/11/19 10:55:21;;;;;;;42.17;35.63;;;11.00;99.90;;;;;;5053709;28;20074;-66
2022/11/19 10:57:49;;;;;;;29.92;26.70;;;11.00;99.90;;;;;;5053785;28;20021;-70
2022/11/19 11:00:16;;;;;;;28.35;25.05;;;11.00;99.90;;;;;;5054208;28;20360;-74
2022/11/19 11:02:56;;;;;;;24.77;21.90;;;11.00;99.90;;;;;;5054012;28;20017;-70
2022/11/19 11:05:22;;;;;;;27.90;22.23;;;11.10;99.90;;;;;;5053778;28;20103;-69
2022/11/19 11:07:49;;;;;;;24.25;19.38;;;11.10;99.90;;;;;;5053593;28;20096;-67
2022/11/19 11:10:24;;;;;;;21.50;18.48;;;11.10;99.90;;;;;;5052985;28;20045;-68
2022/11/19 11:15:42;;;;;;;16.77;14.35;;;11.10;99.90;;;;;;5058487;28;20394;-72
2022/11/19 11:18:10;;;;;;;16.52;14.40;;;11.10;99.90;;;;;;5057826;28;20025;-67
2022/11/19 11:20:38;;;;;;;19.60;16.73;;;11.20;99.90;;;;;;5057541;28;20044;-69
2022/11/19 11:23:10;;;;;;;29.60;22.83;;;11.30;99.90;;;;;;5057535;28;20013;-70
2022/11/19 11:25:38;;;;;;;29.92;24.05;;;11.30;99.90;;;;;;5057495;28;20021;-67
2022/11/19 11:28:06;;;;;;;26.88;22.88;;;11.30;99.90;;;;;;5057598;28;20486;-67
2022/11/19 11:30:33;;;;;;;59.05;45.15;;;11.40;99.90;;;;;;5057771;28;20122;-71
2022/11/19 11:33:26;;;;;;;39.80;33.97;;;11.40;99.90;;;;;;5057478;28;20036;-67
2022/11/19 11:35:53;;;;;;;44.33;35.90;;;11.30;99.90;;;;;;5057997;28;20021;-65
2022/11/19 11:38:21;;;;;;;52.97;40.72;;;11.30;99.90;;;;;;5057508;28;20088;-70
2022/11/19 11:40:59;;;;;;;46.70;36.97;;;11.30;99.90;;;;;;5057475;28;20444;-70
2022/11/19 11:43:26;;;;;;;58.67;46.10;;;11.30;99.90;;;;;;5057282;28;20021;-71
2022/11/19 11:45:58;;;;;;;46.65;40.03;;;11.40;99.90;;;;;;5057418;28;20024;-65
2022/11/19 11:48:24;;;;;;;54.58;44.70;;;11.40;99.90;;;;;;5057309;28;20111;-73
2022/11/19 11:50:50;;;;;;;64.50;52.95;;;11.50;99.90;;;;;;5057278;28;20124;-66
2022/11/19 11:53:26;;;;;;;56.40;47.97;;;11.50;99.90;;;;;;5057130;28;20021;-67
2022/11/19 11:56:02;;;;;;;72.70;55.50;;;11.40;99.90;;;;;;5057092;28;20028;-68
2022/11/19 11:58:32;;;;;;;59.03;49.80;;;11.50;99.90;;;;;;5057105;28;20025;-68
2022/11/19 12:01:14;;;;;;;58.35;48.58;;;11.50;99.90;;;;;;5057551;28;20025;-68
2022/11/19 12:03:53;;;;;;;60.60;48.85;;;11.50;99.90;;;;;;5056954;28;20021;-68
2022/11/19 12:06:22;;;;;;;52.22;43.60;;;11.60;99.90;;;;;;5056904;28;20086;-72
2022/11/19 12:09:10;;;;;;;49.85;43.08;;;11.60;99.90;;;;;;5056682;28;20091;-70
2022/11/19 12:11:55;;;;;;;64.05;51.05;;;11.60;99.90;;;;;;5056703;28;20122;-67
2022/11/19 12:14:36;;;;;;;60.53;49.05;;;11.60;99.90;;;;;;5056762;28;20024;-72
2022/11/19 12:17:35;;;;;;;53.05;45.88;;;11.60;99.90;;;;;;5056869;28;20071;-67
2022/11/19 12:20:24;;;;;;;46.08;38.97;;;11.60;99.90;;;;;;5057025;28;20053;-68
2022/11/19 12:23:05;;;;;;;43.20;37.95;;;11.60;99.90;;;;;;5056112;28;20040;-71
2022/11/19 12:25:43;;;;;;;43.90;37.20;;;11.60;99.90;;;;;;5056279;28;20051;-68
2022/11/19 12:28:12;;;;;;;46.90;41.03;;;11.70;99.90;;;;;;5056531;28;20051;-69
2022/11/19 12:30:56;;;;;;;62.50;50.63;;;11.70;99.90;;;;;;5056483;28;20040;-68
2022/11/19 12:33:34;;;;;;;53.97;46.53;;;11.70;99.90;;;;;;5056151;28;20070;-72
2022/11/19 12:36:10;;;;;;;49.08;42.28;;;11.60;99.90;;;;;;5056406;28;20356;-73
2022/11/19 12:38:54;;;;;;;41.78;36.58;;;11.60;99.90;;;;;;5056246;28;20013;-68
2022/11/19 12:41:53;;;;;;;45.50;39.13;;;11.70;99.90;;;;;;5056285;28;20025;-70
2022/11/19 12:44:34;;;;;;;38.20;34.10;;;11.70;99.90;;;;;;5056022;28;20027;-71
2022/11/19 12:47:46;;;;;;;41.65;36.28;;;11.80;99.90;;;;;;5055977;28;20017;-75
2022/11/19 12:50:28;;;;;;;37.75;32.50;;;11.80;99.90;;;;;;5056070;28;20117;-73
2022/11/19 12:52:59;;;;;;;37.58;33.55;;;11.90;99.90;;;;;;5056155;28;20395;-68
2022/11/19 12:55:58;;;;;;;39.90;34.53;;;11.90;99.90;;;;;;5055980;28;20017;-71
2022/11/19 12:58:49;;;;;;;33.10;29.48;;;11.90;99.90;;;;;;5055877;28;20120;-70
2022/11/19 13:01:24;;;;;;;33.00;29.02;;;11.80;99.90;;;;;;5056152;28;20025;-70
2022/11/19 13:04:02;;;;;;;29.85;26.75;;;11.80;99.90;;;;;;5055956;28;20027;-73
2022/11/19 13:06:59;;;;;;;29.70;26.50;;;11.80;99.90;;;;;;5055887;28;20563;-65
2022/11/19 13:09:37;;;;;;;27.33;24.13;;;11.90;99.90;;;;;;5056014;28;20052;-69
2022/11/19 13:12:38;;;;;;;27.42;24.48;;;11.90;99.90;;;;;;5055566;28;20041;-67